Time;durP1;ratioP1;P1;durP2;ratioP2;P2;SDS_P1;SDS_P2;PMS_P1;PMS_P2;Temp;Humidity;BMP_temperature;BMP_pressure;BME280_temperature;BME280_humidity;BME280_pressure;Samples;Min_cycle;Max_cycle;Signal;HPM_P1;HPM_P2
2021/12/04 00:01:50;;;;;;;7.18;3.70;;;6.00;95.20;;;;;;4973024;28;20520;-71
2021/12/04 00:04:24;;;;;;;6.65;3.78;;;6.00;95.30;;;;;;4988164;28;20038;-71
2021/12/04 00:06:50;;;;;;;5.93;3.10;;;6.00;95.30;;;;;;4973054;28;20034;-71
2021/12/04 00:09:21;;;;;;;6.85;4.00;;;6.10;95.30;;;;;;4973258;28;20082;-72
2021/12/04 00:11:54;;;;;;;4.88;3.63;;;6.10;95.20;;;;;;4973767;28;20030;-73
2021/12/04 00:14:20;;;;;;;12.13;4.35;;;6.00;95.30;;;;;;4973333;28;20038;-73
2021/12/04 00:16:46;;;;;;;6.60;3.63;;;6.00;95.40;;;;;;4972826;28;20035;-72
2021/12/04 00:19:12;;;;;;;8.55;3.97;;;6.00;95.60;;;;;;4972981;28;20552;-72
2021/12/04 00:21:37;;;;;;;7.28;3.80;;;6.00;95.40;;;;;;4972892;28;20467;-72
2021/12/04 00:24:03;;;;;;;9.20;4.32;;;6.10;95.30;;;;;;4972741;28;20335;-71
2021/12/04 00:26:29;;;;;;;7.28;3.97;;;6.10;95.30;;;;;;4972002;28;20093;-71
2021/12/04 00:28:54;;;;;;;8.52;4.43;;;6.10;95.20;;;;;;4972476;28;20027;-71
2021/12/04 00:31:20;;;;;;;8.15;3.90;;;6.10;95.20;;;;;;4972703;28;20035;-72
2021/12/04 00:33:47;;;;;;;8.50;3.63;;;6.00;95.30;;;;;;4972469;28;20420;-72
2021/12/04 00:36:27;;;;;;;10.45;4.05;;;6.10;95.40;;;;;;4972440;28;20337;-73
2021/12/04 00:49:50;;;;;;;9.57;4.57;;;6.10;95.50;;;;;;4972304;28;20045;-73
2021/12/04 00:52:16;;;;;;;8.30;3.80;;;6.00;95.60;;;;;;4971059;28;20396;-72
2021/12/04 00:54:43;;;;;;;7.47;4.35;;;6.00;95.70;;;;;;4972222;28;20066;-73
2021/12/04 00:57:09;;;;;;;8.85;3.90;;;6.00;95.50;;;;;;4972180;28;20093;-73
2021/12/04 00:59:34;;;;;;;6.03;4.28;;;6.20;95.60;;;;;;4971676;28;20046;-73
2021/12/04 01:02:00;;;;;;;6.30;4.15;;;6.00;95.50;;;;;;4972029;28;20045;-72
2021/12/04 01:04:25;;;;;;;6.15;4.20;;;6.00;95.60;;;;;;4972251;28;20019;-73
2021/12/04 01:06:51;;;;;;;7.95;4.88;;;6.10;95.80;;;;;;4972105;28;20505;-71
2021/12/04 01:09:19;;;;;;;10.25;4.35;;;6.00;95.70;;;;;;4971739;28;20042;-72
2021/12/04 01:11:45;;;;;;;;;;;6.00;95.80;;;;;;4972793;28;20109;-72
2021/12/04 01:14:13;;;;;;;5.80;4.28;;;6.00;95.90;;;;;;4972009;28;19911;-71
2021/12/04 01:16:39;;;;;;;11.93;4.90;;;6.00;95.80;;;;;;4971961;28;20046;-71
2021/12/04 01:19:05;;;;;;;7.32;4.82;;;6.00;95.90;;;;;;4971793;28;20588;-71
2021/12/04 01:21:31;;;;;;;11.15;4.70;;;5.90;95.90;;;;;;4971907;28;20157;-72
2021/12/04 01:23:57;;;;;;;9.07;4.88;;;6.00;96.10;;;;;;4971494;28;20057;-71
2021/12/04 01:26:23;;;;;;;10.48;4.63;;;5.90;96.00;;;;;;4972107;28;20035;-71
2021/12/04 01:28:49;;;;;;;10.20;5.22;;;5.90;96.10;;;;;;4971807;28;20066;-71
2021/12/04 01:31:14;;;;;;;11.88;5.43;;;5.90;96.30;;;;;;4987072;28;20043;-71
2021/12/04 01:33:40;;;;;;;8.30;5.00;;;5.90;96.30;;;;;;4971631;28;20121;-72
2021/12/04 01:36:05;;;;;;;7.65;4.57;;;5.90;96.40;;;;;;4971611;28;20174;-71
2021/12/04 01:38:31;;;;;;;10.18;5.25;;;5.90;96.50;;;;;;4972277;28;20106;-71
2021/12/04 01:40:57;;;;;;;9.27;5.00;;;5.80;96.50;;;;;;4971717;28;20373;-72
2021/12/04 01:43:22;;;;;;;8.32;4.72;;;5.90;96.50;;;;;;4971438;28;20038;-71
2021/12/04 01:45:48;;;;;;;9.85;4.80;;;5.90;96.60;;;;;;4971389;28;20038;-72
2021/12/04 01:48:14;;;;;;;10.88;4.47;;;5.90;96.50;;;;;;4971500;28;20038;-72
2021/12/04 01:50:40;;;;;;;7.80;4.50;;;5.90;96.60;;;;;;4971798;28;20022;-72
2021/12/04 01:53:06;;;;;;;6.28;4.07;;;5.90;96.50;;;;;;4971523;28;20480;-72
2021/12/04 01:55:34;;;;;;;7.50;4.70;;;5.90;96.50;;;;;;4971556;28;20114;-71
2021/12/04 01:58:03;;;;;;;10.57;4.82;;;5.80;96.40;;;;;;4971369;28;20039;-72
2021/12/04 02:00:35;;;;;;;5.18;4.10;;;5.80;96.40;;;;;;4971169;28;20035;-71
2021/12/04 02:03:03;;;;;;;7.50;4.70;;;5.90;96.40;;;;;;4971353;28;20031;-72
2021/12/04 02:05:28;;;;;;;6.63;4.28;;;5.90;96.30;;;;;;4986592;28;20023;-71
2021/12/04 02:07:54;;;;;;;8.35;4.68;;;6.00;96.20;;;;;;4971259;28;20053;-72
2021/12/04 02:10:20;;;;;;;8.35;4.45;;;6.00;96.10;;;;;;4972489;28;20070;-71
2021/12/04 02:12:47;;;;;;;5.75;4.43;;;6.00;96.10;;;;;;4974977;28;20023;-71
2021/12/04 02:15:15;;;;;;;8.37;4.67;;;6.10;96.00;;;;;;4975292;28;20037;-71
2021/12/04 02:17:41;;;;;;;8.07;4.28;;;6.00;96.00;;;;;;4975345;28;20123;-71
2021/12/04 02:20:14;;;;;;;8.48;4.88;;;6.10;95.90;;;;;;4975194;28;20118;-72
2021/12/04 02:22:40;;;;;;;8.27;5.32;;;6.00;95.90;;;;;;4974945;28;20118;-73
2021/12/04 02:25:08;;;;;;;7.97;4.10;;;6.00;96.00;;;;;;4974926;28;20122;-71
2021/12/04 02:27:34;;;;;;;7.50;4.60;;;6.10;95.90;;;;;;4975022;28;20030;-72
2021/12/04 02:30:00;;;;;;;9.10;4.60;;;6.10;95.80;;;;;;4974764;28;20033;-72
2021/12/04 02:32:25;;;;;;;7.60;4.53;;;6.00;95.80;;;;;;4975299;28;20027;-72
2021/12/04 02:34:51;;;;;;;7.53;4.43;;;6.10;95.90;;;;;;4975362;28;20031;-72
2021/12/04 02:37:16;;;;;;;10.25;4.55;;;6.00;95.70;;;;;;5013572;28;20658;-72
2021/12/04 02:39:46;;;;;;;8.13;4.90;;;6.00;95.80;;;;;;5013848;28;20522;-72
2021/12/04 02:42:23;;;;;;;6.97;4.13;;;5.90;95.80;;;;;;5013636;28;20018;-71
2021/12/04 02:44:49;;;;;;;8.93;5.00;;;6.00;95.90;;;;;;5013923;28;20025;-72
2021/12/04 02:47:15;;;;;;;7.32;4.82;;;5.90;95.80;;;;;;5013692;28;20052;-72
2021/12/04 02:49:41;;;;;;;7.97;4.20;;;6.00;95.90;;;;;;5013761;28;20076;-72
2021/12/04 02:52:09;;;;;;;9.40;4.75;;;6.10;95.90;;;;;;5013405;28;20056;-72
2021/12/04 02:54:35;;;;;;;7.32;4.32;;;6.00;95.80;;;;;;5013747;28;20030;-72
2021/12/04 02:57:02;;;;;;;6.30;4.28;;;6.00;95.70;;;;;;5013374;28;20455;-72
2021/12/04 02:59:28;;;;;;;13.33;5.20;;;6.00;95.80;;;;;;5013249;28;20046;-72
2021/12/04 03:01:55;;;;;;;7.70;4.88;;;6.00;95.80;;;;;;5013391;28;20080;-72
2021/12/04 03:04:23;;;;;;;8.13;4.93;;;5.90;95.80;;;;;;5013255;28;20438;-72
2021/12/04 03:10:11;;;;;;;8.35;4.85;;;6.00;95.80;;;;;;5013017;28;20044;-72
2021/12/04 03:12:37;;;;;;;12.73;4.82;;;6.00;95.70;;;;;;5013190;28;20022;-72
2021/12/04 03:15:03;;;;;;;9.68;5.38;;;5.90;95.90;;;;;;5013163;28;20037;-71
2021/12/04 03:17:29;;;;;;;9.00;4.85;;;6.00;96.00;;;;;;5013658;28;20419;-72
2021/12/04 03:19:54;;;;;;;6.60;4.85;;;6.00;95.90;;;;;;5012989;28;20046;-72
2021/12/04 03:22:22;;;;;;;6.32;4.53;;;6.00;95.70;;;;;;5012352;28;20038;-72
2021/12/04 03:24:49;;;;;;;8.75;5.20;;;5.90;95.80;;;;;;5012748;28;20034;-72
2021/12/04 03:27:16;;;;;;;11.23;5.10;;;5.90;95.80;;;;;;5012929;28;20034;-72
2021/12/04 03:29:47;;;;;;;10.02;5.47;;;6.10;95.90;;;;;;5013170;28;20048;-72
2021/12/04 03:32:36;;;;;;;9.77;4.50;;;5.90;95.80;;;;;;5012692;28;20064;-72
2021/12/04 03:40:38;;;;;;;7.78;4.85;;;5.80;95.70;;;;;;5013030;28;20037;-72
2021/12/04 03:43:07;;;;;;;7.03;4.43;;;5.80;95.80;;;;;;5011549;28;20034;-71
2021/12/04 03:45:35;;;;;;;7.20;4.25;;;5.90;95.70;;;;;;5012668;28;20478;-71
2021/12/04 03:48:08;;;;;;;8.27;4.63;;;5.80;95.60;;;;;;5011423;28;20018;-71
2021/12/04 03:50:34;;;;;;;6.43;4.40;;;5.90;95.60;;;;;;5012913;28;20023;-71
2021/12/04 03:53:00;;;;;;;9.10;4.68;;;5.80;95.60;;;;;;5012422;28;20587;-72
2021/12/04 03:55:25;;;;;;;9.40;4.05;;;5.90;95.60;;;;;;5012399;28;20117;-71
2021/12/04 03:57:52;;;;;;;11.32;4.80;;;5.90;95.60;;;;;;5012343;28;20038;-73
2021/12/04 04:00:20;;;;;;;5.32;4.18;;;5.90;95.60;;;;;;5011959;28;20490;-73
2021/12/04 04:02:46;;;;;;;7.18;4.72;;;5.90;95.60;;;;;;5012868;28;20049;-72
2021/12/04 04:05:12;;;;;;;7.10;4.57;;;5.90;95.60;;;;;;5012439;28;20018;-72
2021/12/04 04:07:38;;;;;;;5.38;3.78;;;5.90;95.60;;;;;;5011956;28;20460;-72
2021/12/04 04:10:05;;;;;;;9.00;4.57;;;5.90;95.50;;;;;;5012215;28;20034;-72
2021/12/04 04:12:31;;;;;;;6.97;4.05;;;6.00;95.60;;;;;;5012080;28;20369;-72
2021/12/04 04:14:56;;;;;;;9.68;4.38;;;6.00;95.50;;;;;;5012028;28;20040;-71
2021/12/04 04:17:22;;;;;;;6.25;4.00;;;6.00;95.50;;;;;;5012243;28;20459;-72
2021/12/04 04:19:48;;;;;;;6.32;3.97;;;5.90;95.40;;;;;;5011967;28;20084;-72
2021/12/04 04:22:13;;;;;;;6.28;4.45;;;5.90;95.40;;;;;;5011783;28;20034;-73
2021/12/04 04:24:39;;;;;;;6.78;4.00;;;6.00;95.40;;;;;;5011921;28;20030;-73
2021/12/04 04:27:05;;;;;;;8.93;4.60;;;6.00;95.40;;;;;;5012018;28;20033;-73
2021/12/04 04:29:30;;;;;;;9.63;4.50;;;6.00;95.40;;;;;;5011300;28;20064;-72
2021/12/04 04:31:56;;;;;;;7.85;4.13;;;6.00;95.30;;;;;;5010576;28;20022;-72
2021/12/04 04:34:37;;;;;;;10.68;4.57;;;6.00;95.40;;;;;;5010805;28;20141;-72
2021/12/04 04:37:17;;;;;;;7.15;4.07;;;6.00;95.40;;;;;;5011616;28;20044;-72
2021/12/04 04:40:20;;;;;;;7.93;4.32;;;6.00;95.40;;;;;;5011620;28;20398;-72
2021/12/04 04:57:31;;;;;;;10.35;4.15;;;6.10;95.40;;;;;;5011692;28;20040;-72
2021/12/04 05:13:25;;;;;;;7.97;4.55;;;6.20;95.30;;;;;;5011150;28;20036;-72
2021/12/04 05:20:55;;;;;;;9.80;4.35;;;6.30;95.20;;;;;;5011386;28;20030;-71
2021/12/04 05:23:23;;;;;;;11.13;4.07;;;6.30;95.30;;;;;;5010894;28;20025;-72
2021/12/04 05:25:50;;;;;;;8.00;4.03;;;6.30;95.30;;;;;;5009863;28;20030;-72
2021/12/04 05:28:17;;;;;;;13.25;4.28;;;6.20;95.20;;;;;;5010854;28;20241;-72
2021/12/04 05:30:42;;;;;;;5.60;3.90;;;6.20;95.30;;;;;;5011089;28;20095;-73
2021/12/04 05:33:08;;;;;;;5.75;3.97;;;6.20;95.30;;;;;;5010812;28;20105;-70
2021/12/04 05:35:33;;;;;;;5.43;3.75;;;6.30;95.40;;;;;;5011182;28;20022;-70
2021/12/04 05:37:59;;;;;;;7.75;4.45;;;6.20;95.50;;;;;;5009620;28;20030;-72
2021/12/04 05:40:25;;;;;;;8.68;3.95;;;6.20;95.60;;;;;;5010672;28;20026;-71
2021/12/04 05:42:51;;;;;;;7.90;4.38;;;6.20;95.50;;;;;;5009416;28;20029;-72
2021/12/04 05:45:23;;;;;;;7.20;4.32;;;6.20;95.50;;;;;;5013040;28;20046;-72
2021/12/04 05:50:34;;;;;;;7.90;4.90;;;6.20;95.60;;;;;;5017277;28;20100;-72
2021/12/04 05:53:16;;;;;;;6.43;4.50;;;6.20;95.60;;;;;;5016983;28;20041;-72
2021/12/04 05:55:55;;;;;;;6.20;4.63;;;6.20;95.50;;;;;;5016986;28;20029;-70
2021/12/04 05:58:30;;;;;;;6.22;4.28;;;6.20;95.50;;;;;;5016728;28;20041;-71
2021/12/04 06:00:58;;;;;;;6.35;4.28;;;6.20;95.60;;;;;;5015911;28;20061;-71
2021/12/04 06:03:24;;;;;;;8.32;4.68;;;6.20;95.60;;;;;;5016191;28;20025;-71
2021/12/04 06:05:50;;;;;;;6.22;4.22;;;6.30;95.60;;;;;;5017370;28;20033;-71
2021/12/04 06:08:15;;;;;;;10.85;4.45;;;6.30;95.60;;;;;;5017150;28;20447;-71
2021/12/04 06:10:42;;;;;;;7.70;4.38;;;6.30;95.60;;;;;;5017035;28;20646;-71
2021/12/04 06:13:07;;;;;;;9.45;4.53;;;6.30;95.50;;;;;;5016774;28;20041;-71
2021/12/04 06:15:33;;;;;;;8.18;4.25;;;6.20;95.50;;;;;;5016653;28;20403;-72
2021/12/04 06:17:59;;;;;;;7.65;4.68;;;6.30;95.60;;;;;;5015920;28;20467;-72
2021/12/04 06:23:09;;;;;;;7.53;4.97;;;6.20;95.70;;;;;;5017016;28;20048;-72
2021/12/04 06:25:35;;;;;;;7.68;4.70;;;6.20;95.60;;;;;;5016770;28;20117;-72
2021/12/04 06:28:01;;;;;;;8.60;4.57;;;6.20;95.70;;;;;;5015698;28;20048;-72
2021/12/04 06:30:26;;;;;;;7.35;4.32;;;6.20;95.60;;;;;;5016812;28;20042;-72
2021/12/04 06:32:54;;;;;;;5.97;4.32;;;6.20;95.60;;;;;;5017220;28;20419;-72
2021/12/04 06:35:23;;;;;;;6.82;5.30;;;6.30;95.60;;;;;;5016769;28;20040;-71
2021/12/04 06:37:49;;;;;;;9.73;5.63;;;6.30;95.60;;;;;;5015970;28;20116;-72
2021/12/04 06:40:17;;;;;;;8.65;5.15;;;6.30;95.60;;;;;;5016833;28;20077;-73
2021/12/04 06:42:44;;;;;;;10.70;5.15;;;6.30;95.50;;;;;;5016605;28;20128;-72
2021/12/04 06:45:12;;;;;;;6.95;4.68;;;6.30;95.40;;;;;;5016578;28;20080;-72
2021/12/04 06:47:40;;;;;;;9.20;5.38;;;6.30;95.50;;;;;;5017096;28;20021;-72
2021/12/04 06:50:13;;;;;;;7.65;4.95;;;6.20;95.40;;;;;;5016623;28;20040;-72
2021/12/04 06:52:43;;;;;;;9.27;4.85;;;6.20;95.40;;;;;;5016695;28;20040;-72
2021/12/04 06:55:09;;;;;;;7.82;4.50;;;6.30;95.60;;;;;;5016724;28;20462;-72
2021/12/04 06:57:38;;;;;;;6.78;5.07;;;6.30;95.50;;;;;;5013359;28;20025;-72
2021/12/04 07:00:06;;;;;;;8.40;4.90;;;6.30;95.50;;;;;;5013076;28;20046;-72
2021/12/04 07:02:32;;;;;;;7.10;4.93;;;6.30;95.40;;;;;;5013598;28;20034;-72
2021/12/04 07:04:58;;;;;;;7.18;4.55;;;6.30;95.40;;;;;;5013178;28;20087;-72
2021/12/04 07:07:24;;;;;;;6.80;4.55;;;6.30;95.50;;;;;;5013269;28;20030;-71
2021/12/04 07:09:49;;;;;;;7.10;4.60;;;6.30;95.50;;;;;;5013127;28;20029;-72
2021/12/04 07:12:15;;;;;;;8.88;5.22;;;6.30;95.30;;;;;;5013187;28;20033;-72
2021/12/04 07:14:40;;;;;;;5.47;4.47;;;6.30;95.40;;;;;;5013484;28;20102;-71
2021/12/04 07:17:08;;;;;;;8.63;5.20;;;6.30;95.40;;;;;;5013299;28;20375;-72
2021/12/04 07:19:34;;;;;;;7.80;5.05;;;6.30;95.50;;;;;;5013192;28;20083;-72
2021/12/04 07:22:02;;;;;;;11.35;7.10;;;6.30;95.40;;;;;;5012981;28;20046;-71
2021/12/04 07:24:29;;;;;;;12.23;6.90;;;6.30;95.30;;;;;;5012960;28;20048;-72
2021/12/04 07:26:55;;;;;;;10.35;6.47;;;6.30;95.30;;;;;;5012511;28;20061;-72
2021/12/04 07:29:21;;;;;;;13.15;6.10;;;6.30;95.40;;;;;;5011706;28;20077;-72
2021/12/04 07:31:46;;;;;;;14.52;7.80;;;6.30;95.50;;;;;;5012819;28;20033;-72
2021/12/04 07:34:12;;;;;;;13.18;5.93;;;6.30;95.50;;;;;;5012999;28;20037;-72
2021/12/04 07:36:38;;;;;;;9.95;4.65;;;6.30;95.40;;;;;;5011577;28;20034;-72
2021/12/04 07:39:04;;;;;;;7.95;5.55;;;6.30;95.40;;;;;;5011601;28;20514;-71
2021/12/04 07:41:30;;;;;;;11.45;5.82;;;6.20;95.50;;;;;;5012979;28;20037;-70
2021/12/04 07:43:56;;;;;;;9.02;5.28;;;6.20;95.50;;;;;;5012638;28;20215;-71
2021/12/04 07:46:22;;;;;;;8.20;5.70;;;6.30;95.50;;;;;;5012583;28;20101;-71
2021/12/04 07:48:48;;;;;;;6.63;4.90;;;6.40;95.40;;;;;;5012550;28;20204;-71
2021/12/04 07:51:17;;;;;;;7.45;5.18;;;6.30;95.40;;;;;;5012333;28;20037;-71
2021/12/04 07:53:46;;;;;;;11.43;5.60;;;6.20;95.40;;;;;;5012763;28;20037;-71
2021/12/04 07:56:12;;;;;;;8.82;5.53;;;6.20;95.50;;;;;;5012470;28;20037;-70
2021/12/04 07:58:38;;;;;;;9.60;5.35;;;6.20;95.50;;;;;;5012045;28;20492;-71
2021/12/04 08:01:04;;;;;;;9.70;5.53;;;6.20;95.60;;;;;;5012234;28;20519;-72
2021/12/04 08:03:30;;;;;;;9.48;5.40;;;6.10;95.60;;;;;;5012200;28;20247;-71
2021/12/04 08:05:55;;;;;;;11.73;6.70;;;6.20;95.70;;;;;;5012760;28;20018;-71
2021/12/04 08:08:21;;;;;;;15.35;9.20;;;6.20;95.60;;;;;;5011964;28;20034;-71
2021/12/04 08:10:47;;;;;;;9.02;6.22;;;6.20;95.80;;;;;;5011924;28;20141;-72
2021/12/04 08:13:12;;;;;;;10.93;6.05;;;6.20;96.00;;;;;;5012148;28;20049;-73
2021/12/04 08:15:38;;;;;;;11.68;6.85;;;6.20;95.80;;;;;;5011974;28;20560;-72
2021/12/04 08:18:05;;;;;;;11.63;7.15;;;6.20;95.80;;;;;;5011986;28;20097;-72
2021/12/04 08:20:30;;;;;;;10.57;6.70;;;6.30;96.00;;;;;;5011330;28;20044;-72
2021/12/04 08:22:56;;;;;;;15.95;8.55;;;6.10;95.90;;;;;;5011865;28;20471;-71
2021/12/04 08:25:22;;;;;;;11.75;6.68;;;6.20;96.00;;;;;;5011866;28;20042;-71
2021/12/04 08:27:49;;;;;;;10.30;6.63;;;6.20;96.00;;;;;;5011765;28;20034;-72
2021/12/04 08:30:24;;;;;;;11.82;7.20;;;6.30;95.90;;;;;;5011602;28;20022;-72
2021/12/04 08:32:53;;;;;;;14.88;7.20;;;6.30;95.90;;;;;;5012315;28;20026;-71
2021/12/04 08:35:20;;;;;;;9.73;6.60;;;6.20;96.00;;;;;;5011739;28;20030;-72
2021/12/04 08:37:46;;;;;;;9.40;6.88;;;6.20;96.20;;;;;;5005378;28;20034;-72
2021/12/04 08:40:15;;;;;;;10.55;6.35;;;6.30;96.10;;;;;;4991754;28;20047;-72
2021/12/04 08:42:42;;;;;;;11.25;6.75;;;6.30;96.20;;;;;;5007210;28;20034;-71
2021/12/04 08:45:08;;;;;;;13.98;6.97;;;6.20;96.40;;;;;;4992158;28;20038;-72
2021/12/04 08:47:34;;;;;;;9.45;6.28;;;6.20;96.20;;;;;;4992363;28;20034;-71
2021/12/04 08:50:00;;;;;;;10.85;6.78;;;6.30;96.20;;;;;;4991960;28;20034;-73
2021/12/04 08:52:26;;;;;;;11.23;7.03;;;6.30;96.20;;;;;;4991656;28;20062;-75
2021/12/04 08:54:52;;;;;;;11.88;7.47;;;6.30;96.30;;;;;;4991968;28;20066;-73
2021/12/04 08:57:17;;;;;;;13.25;6.72;;;6.30;96.20;;;;;;4991836;28;20471;-71
2021/12/04 08:59:45;;;;;;;17.00;8.80;;;6.20;96.20;;;;;;4991992;28;20472;-73
2021/12/04 09:02:11;;;;;;;11.18;7.10;;;6.30;96.20;;;;;;4991202;28;20069;-71
2021/12/04 09:04:38;;;;;;;12.30;7.75;;;6.30;96.20;;;;;;4991274;28;20571;-72
2021/12/04 09:07:05;;;;;;;10.47;7.00;;;6.30;96.30;;;;;;4991526;28;20253;-72
2021/12/04 09:09:31;;;;;;;11.05;6.70;;;6.20;96.30;;;;;;4991203;28;20037;-71
2021/12/04 09:12:03;;;;;;;10.75;6.13;;;6.20;96.70;;;;;;4988559;28;20429;-71
2021/12/04 09:14:33;;;;;;;10.10;6.75;;;6.20;96.50;;;;;;4992097;28;20472;-72
2021/12/04 09:17:02;;;;;;;13.43;7.53;;;6.20;96.50;;;;;;4990108;28;20039;-72
2021/12/04 09:19:28;;;;;;;11.15;7.03;;;6.30;96.60;;;;;;4991156;28;20088;-72
2021/12/04 09:21:56;;;;;;;11.75;7.15;;;6.40;96.40;;;;;;4989962;28;20504;-71
2021/12/04 09:24:27;;;;;;;11.50;7.40;;;6.30;96.30;;;;;;4991500;28;20034;-73
2021/12/04 09:32:28;;;;;;;11.20;7.13;;;6.30;96.30;;;;;;4991545;28;20065;-72
2021/12/04 09:35:25;;;;;;;10.98;7.15;;;6.30;96.30;;;;;;4991078;28;20022;-72
2021/12/04 10:05:25;;;;;;;;;;;;;;;;;;;;;
2021/12/04 10:16:04;;;;;;;7.82;5.68;;;6.80;95.90;;;;;;4990482;28;20018;-72
2021/12/04 10:32:30;;;;;;;7.35;5.10;;;7.00;95.60;;;;;;4991477;28;20109;-74
2021/12/04 10:35:06;;;;;;;9.85;5.97;;;7.00;95.30;;;;;;4994229;28;20492;-76
2021/12/04 10:37:32;;;;;;;8.73;5.75;;;7.00;95.40;;;;;;4994396;28;20038;-77
2021/12/04 10:40:03;;;;;;;8.93;5.72;;;7.10;95.40;;;;;;4994302;28;20469;-77
2021/12/04 10:42:52;;;;;;;7.22;5.28;;;7.30;95.40;;;;;;4993016;28;20038;-76
2021/12/04 10:45:30;;;;;;;7.82;5.35;;;7.10;95.20;;;;;;4994215;28;20475;-72
2021/12/04 10:47:58;;;;;;;8.60;5.82;;;7.20;95.30;;;;;;4993247;28;20041;-79
2021/12/04 10:50:37;;;;;;;6.22;4.93;;;7.30;95.30;;;;;;4992877;28;20042;-76
2021/12/04 10:53:10;;;;;;;8.73;5.25;;;7.30;95.20;;;;;;4993972;28;20476;-76
2021/12/04 11:04:00;;;;;;;9.77;5.30;;;7.50;94.80;;;;;;4993995;28;20042;-75
2021/12/04 11:37:31;;;;;;;9.32;6.18;;;7.50;94.50;;;;;;4992484;28;20034;-72
2021/12/04 11:45:17;;;;;;;10.55;6.00;;;7.40;94.20;;;;;;4992910;28;20027;-73
2021/12/04 11:47:50;;;;;;;10.90;5.95;;;7.40;94.30;;;;;;4992063;28;20129;-73
2021/12/04 11:50:28;;;;;;;9.30;5.82;;;7.40;94.30;;;;;;4992578;28;20031;-73
2021/12/04 11:53:16;;;;;;;7.60;4.90;;;7.40;94.30;;;;;;4992742;28;20046;-73
2021/12/04 11:55:45;;;;;;;8.82;5.25;;;7.40;94.40;;;;;;4992699;28;20476;-74
2021/12/04 11:58:20;;;;;;;7.55;4.47;;;7.40;94.40;;;;;;4992588;28;20468;-74
2021/12/04 12:00:47;;;;;;;5.90;4.38;;;7.40;94.30;;;;;;4992500;28;20181;-73
2021/12/04 12:03:15;;;;;;;7.47;4.70;;;7.40;94.20;;;;;;4991493;28;20035;-74
2021/12/04 12:05:53;;;;;;;5.20;3.85;;;7.40;94.30;;;;;;4992987;28;20479;-71
2021/12/04 12:08:31;;;;;;;6.05;3.90;;;7.40;94.20;;;;;;4992271;28;20088;-74
2021/12/04 12:10:58;;;;;;;;;;;7.50;94.20;;;;;;4992860;28;20081;-78
2021/12/04 12:13:41;;;;;;;5.93;3.65;;;7.40;94.20;;;;;;5007755;28;20251;-77
2021/12/04 12:16:10;;;;;;;5.80;3.70;;;7.30;94.10;;;;;;4992259;28;20104;-75
2021/12/04 12:18:53;;;;;;;7.68;3.97;;;7.30;94.20;;;;;;4991115;28;20026;-73
2021/12/04 12:21:24;;;;;;;7.10;4.07;;;7.40;94.20;;;;;;4992087;28;20106;-76
2021/12/04 12:26:57;;;;;;;4.40;3.17;;;7.60;94.20;;;;;;4991958;28;20034;-74
2021/12/04 12:33:45;;;;;;;6.38;3.97;;;7.70;93.60;;;;;;4991914;28;20037;-74
2021/12/04 12:36:03;;;;;;;6.22;2.97;;;7.70;93.60;;;;;;4987045;28;20038;-73
2021/12/04 12:38:51;;;;;;;4.05;2.75;;;7.80;93.40;;;;;;4991091;28;20415;-72
2021/12/04 12:41:39;;;;;;;4.85;2.65;;;7.70;93.20;;;;;;4991751;28;20113;-73
2021/12/04 12:44:12;;;;;;;3.38;2.35;;;7.80;93.40;;;;;;4991857;28;20027;-73
2021/12/04 12:46:47;;;;;;;3.78;2.80;;;7.80;93.30;;;;;;5006966;28;20125;-74
2021/12/04 12:49:34;;;;;;;4.97;2.88;;;7.80;93.30;;;;;;4991716;28;20030;-74
2021/12/04 12:52:05;;;;;;;3.70;2.88;;;8.00;93.20;;;;;;4990470;28;20096;-72
2021/12/04 12:54:49;;;;;;;3.38;2.15;;;8.00;93.10;;;;;;4990415;28;20520;-72
2021/12/04 12:57:26;;;;;;;4.15;2.22;;;8.10;93.00;;;;;;4991649;28;20022;-72
2021/12/04 13:14:13;;;;;;;3.30;2.03;;;7.80;92.80;;;;;;4991726;28;20186;-73
2021/12/04 13:16:43;;;;;;;2.58;1.75;;;7.60;92.80;;;;;;4991553;28;20369;-72
2021/12/04 13:19:12;;;;;;;2.00;1.80;;;7.70;93.00;;;;;;4991710;28;20038;-74
2021/12/04 13:21:41;;;;;;;3.03;2.08;;;7.70;93.00;;;;;;4990998;28;20042;-73
2021/12/04 13:24:10;;;;;;;3.40;2.15;;;7.70;93.20;;;;;;4990102;28;20033;-73
2021/12/04 13:26:38;;;;;;;2.47;1.92;;;7.60;93.00;;;;;;4991844;28;20022;-77
2021/12/04 13:29:08;;;;;;;2.92;2.08;;;7.50;93.00;;;;;;4990226;28;20026;-74
2021/12/04 13:31:37;;;;;;;3.42;2.10;;;7.40;93.20;;;;;;4991487;28;20027;-73
2021/12/04 13:34:09;;;;;;;7.35;2.30;;;7.50;93.30;;;;;;4990011;28;20045;-75
2021/12/04 13:36:36;;;;;;;6.22;2.20;;;7.50;93.20;;;;;;4991070;28;20023;-73
2021/12/04 13:39:12;;;;;;;3.70;2.33;;;7.30;93.20;;;;;;4989887;28;20033;-73
2021/12/04 13:41:41;;;;;;;2.35;1.90;;;7.20;93.40;;;;;;4991482;28;20093;-73
2021/12/04 13:44:09;;;;;;;2.90;1.80;;;7.20;93.40;;;;;;4991291;28;20051;-73
2021/12/04 13:46:42;;;;;;;;;;;7.30;93.40;;;;;;4991364;28;20060;-73
2021/12/04 13:49:09;;;;;;;3.88;2.30;;;7.30;93.40;;;;;;4990925;28;19984;-73
2021/12/04 13:51:35;;;;;;;3.35;2.25;;;7.20;93.30;;;;;;4989842;28;20037;-73
2021/12/04 13:54:02;;;;;;;3.58;1.90;;;7.30;93.50;;;;;;4990760;28;20396;-74
2021/12/04 13:56:29;;;;;;;3.22;1.98;;;7.40;93.30;;;;;;4985866;28;20110;-74
2021/12/04 13:58:58;;;;;;;2.70;1.88;;;7.30;93.30;;;;;;4986632;28;20054;-74
2021/12/04 14:01:25;;;;;;;4.03;2.58;;;7.30;93.30;;;;;;4971812;28;20031;-72
2021/12/04 14:03:55;;;;;;;4.00;2.75;;;7.30;93.20;;;;;;4971793;28;20031;-72
2021/12/04 14:06:21;;;;;;;2.42;1.80;;;7.30;93.40;;;;;;4973017;28;20034;-73
2021/12/04 14:09:04;;;;;;;2.75;1.60;;;7.40;93.40;;;;;;4975928;28;20027;-72
2021/12/04 14:11:33;;;;;;;2.65;1.90;;;7.40;93.30;;;;;;4975513;28;20362;-72
2021/12/04 14:14:12;;;;;;;3.60;1.90;;;7.40;93.30;;;;;;4975246;28;20042;-72
2021/12/04 14:16:38;;;;;;;1.80;1.48;;;7.50;93.30;;;;;;4977080;28;20077;-74
2021/12/04 14:19:30;;;;;;;2.13;1.80;;;7.40;93.30;;;;;;4986351;28;20039;-73
2021/12/04 14:22:01;;;;;;;4.22;1.95;;;7.30;93.30;;;;;;4976062;28;20045;-79
2021/12/04 14:24:33;;;;;;;2.20;1.60;;;7.30;93.40;;;;;;4975516;28;20334;-75
2021/12/04 14:27:01;;;;;;;4.90;2.00;;;7.40;93.40;;;;;;4990093;28;20653;-72
2021/12/04 14:29:38;;;;;;;2.65;1.85;;;7.30;93.30;;;;;;4975772;28;20030;-74
2021/12/04 14:32:05;;;;;;;3.33;1.97;;;7.20;93.40;;;;;;4974246;28;20412;-73
2021/12/04 14:34:32;;;;;;;5.93;1.80;;;7.20;93.40;;;;;;4975273;28;20081;-73
2021/12/04 14:37:05;;;;;;;1.45;1.35;;;7.30;93.50;;;;;;4973891;28;20268;-75
2021/12/04 14:39:31;;;;;;;3.08;2.00;;;7.20;93.50;;;;;;4975133;28;20035;-74
2021/12/04 14:41:57;;;;;;;6.50;2.00;;;7.20;93.60;;;;;;4974302;28;20085;-72
2021/12/04 14:44:24;;;;;;;2.67;2.03;;;7.30;93.50;;;;;;4975056;28;20475;-73
2021/12/04 14:46:50;;;;;;;2.80;1.70;;;7.40;93.50;;;;;;4990534;28;20030;-72
2021/12/04 14:49:16;;;;;;;2.95;1.65;;;7.40;93.50;;;;;;4993230;28;20031;-73
2021/12/04 14:51:41;;;;;;;3.03;1.98;;;7.30;93.50;;;;;;4994515;28;20026;-72
2021/12/04 14:54:08;;;;;;;3.58;2.13;;;7.30;93.50;;;;;;4992964;28;20531;-74
2021/12/04 14:56:34;;;;;;;3.75;2.22;;;7.40;93.60;;;;;;4994247;28;20045;-74
2021/12/04 14:59:00;;;;;;;5.68;2.95;;;7.40;93.60;;;;;;4994051;28;20872;-73
2021/12/04 15:01:33;;;;;;;3.10;2.13;;;7.30;93.60;;;;;;4993727;28;20368;-74
2021/12/04 15:04:02;;;;;;;3.70;2.25;;;7.30;93.60;;;;;;4993864;28;20032;-72
2021/12/04 15:06:31;;;;;;;3.53;2.33;;;7.30;93.70;;;;;;4994033;28;20088;-73
2021/12/04 15:09:10;;;;;;;7.35;3.60;;;7.20;93.70;;;;;;4994297;28;20412;-73
2021/12/04 15:11:42;;;;;;;7.05;2.63;;;7.20;93.80;;;;;;4993410;28;20094;-75
2021/12/04 15:14:12;;;;;;;2.53;2.13;;;7.30;93.80;;;;;;4994136;28;20038;-72
2021/12/04 15:16:50;;;;;;;5.10;2.75;;;7.20;93.90;;;;;;4993394;28;20109;-74
2021/12/04 15:19:26;;;;;;;5.55;2.88;;;7.20;93.90;;;;;;4992838;28;20092;-74
2021/12/04 15:22:00;;;;;;;6.60;3.45;;;7.20;93.90;;;;;;4992532;28;20488;-75
2021/12/04 15:24:34;;;;;;;4.25;2.42;;;7.20;93.90;;;;;;4993750;28;20072;-73
2021/12/04 15:27:04;;;;;;;4.25;2.80;;;7.10;94.00;;;;;;4993489;28;20038;-74
2021/12/04 15:29:31;;;;;;;6.03;3.28;;;7.10;94.00;;;;;;4993733;28;20415;-74
2021/12/04 15:32:00;;;;;;;3.80;2.70;;;7.10;94.10;;;;;;4992503;28;20042;-74
2021/12/04 15:34:33;;;;;;;3.65;2.45;;;7.10;94.00;;;;;;4992486;28;20034;-75
2021/12/04 15:37:03;;;;;;;4.75;3.05;;;7.10;94.10;;;;;;4993771;28;20042;-75
2021/12/04 15:39:32;;;;;;;4.28;2.72;;;7.10;94.00;;;;;;4993577;28;20046;-76
2021/12/04 15:42:30;;;;;;;5.80;2.90;;;7.00;94.20;;;;;;4993109;28;20041;-74
2021/12/04 15:47:43;;;;;;;5.35;2.78;;;7.10;94.20;;;;;;4993594;28;20518;-76
2021/12/04 15:53:14;;;;;;;4.28;2.83;;;7.10;94.20;;;;;;4986972;28;20066;-77
2021/12/04 15:55:45;;;;;;;3.67;2.83;;;7.10;94.20;;;;;;4973989;28;20118;-80
2021/12/04 15:58:20;;;;;;;4.13;2.42;;;7.10;94.10;;;;;;4988933;28;20059;-76
2021/12/04 16:00:55;;;;;;;5.82;2.65;;;7.00;94.20;;;;;;4971911;28;20392;-74
2021/12/04 16:03:26;;;;;;;3.95;2.88;;;7.00;94.20;;;;;;4973577;28;20053;-76
2021/12/04 16:05:58;;;;;;;4.68;2.85;;;7.00;94.20;;;;;;4973989;28;20335;-76
2021/12/04 16:08:27;;;;;;;7.95;4.72;;;7.10;94.50;;;;;;4973497;28;20322;-78
2021/12/04 16:10:53;;;;;;;12.02;5.93;;;7.10;94.20;;;;;;4973599;28;20122;-74
2021/12/04 16:13:27;;;;;;;7.43;3.95;;;7.10;94.20;;;;;;4973234;28;20031;-75